Time;durP1;ratioP1;P1;durP2;ratioP2;P2;SDS_P1;SDS_P2;PMS_P1;PMS_P2;Temp;Humidity;BMP_temperature;BMP_pressure;BME280_temperature;BME280_humidity;BME280_pressure;Samples;Min_cycle;Max_cycle;Signal;HPM_P1;HPM_P2
2022/09/25 09:04:55;;;;;;;5.57;5.05;;;;;;;15.55;38.46;95198.38;4970200;28;20266;-65
2022/09/25 09:07:20;;;;;;;6.47;5.72;;;;;;;15.64;38.46;95184.06;4991433;28;20211;-65
2022/09/25 09:09:59;;;;;;;7.50;6.70;;;;;;;15.83;39.03;95173.00;4971203;28;21017;-65
2022/09/25 09:12:34;;;;;;;8.38;4.88;;;;;;;16.20;38.77;95173.09;4960295;28;20270;-64
2022/09/25 09:15:21;;;;;;;5.68;5.15;;;;;;;16.41;37.46;95170.56;5299617;23;20329;-61
2022/09/25 09:17:47;;;;;;;4.60;4.20;;;;;;;16.68;36.50;95162.91;4964476;28;89031;-61
2022/09/25 09:20:18;;;;;;;5.22;4.55;;;;;;;16.84;36.20;95165.41;4956387;28;20245;-61
2022/09/25 09:22:51;;;;;;;4.47;4.05;;;;;;;16.97;35.71;95154.94;4983581;28;20247;-61
2022/09/25 09:25:27;;;;;;;4.07;3.67;;;;;;;17.34;35.29;95157.53;4961818;28;20246;-61
2022/09/25 09:28:23;;;;;;;5.43;3.72;;;;;;;17.47;35.00;95155.00;4958673;28;21423;-61
2022/09/25 09:31:11;;;;;;;4.38;3.97;;;;;;;17.66;33.89;95155.38;4970221;28;20204;-61
2022/09/25 09:34:14;;;;;;;4.07;3.58;;;;;;;17.62;34.36;95153.09;4954303;28;20299;-61
2022/09/25 09:37:14;;;;;;;4.85;3.95;;;;;;;17.42;34.71;95154.75;4953767;28;20287;-61
2022/09/25 09:42:24;;;;;;;5.70;3.42;;;;;;;17.76;34.59;95145.22;4975964;28;20235;-62
2022/09/25 09:45:24;;;;;;;3.92;3.50;;;;;;;18.15;33.52;95149.19;4958177;28;20216;-62
2022/09/25 09:48:28;;;;;;;5.55;3.95;;;;;;;18.48;32.38;95138.75;4979374;28;20232;-63
2022/09/25 09:51:02;;;;;;;5.22;3.20;;;;;;;18.46;32.65;95143.44;4963783;28;20404;-64
2022/09/25 09:53:36;;;;;;;4.20;3.58;;;;;;;18.37;32.40;95133.97;4976737;28;20314;-63
2022/09/25 09:56:20;;;;;;;4.68;3.33;;;;;;;18.33;32.87;95128.22;4973421;28;20212;-63
2022/09/25 09:58:59;;;;;;;3.50;3.20;;;;;;;18.04;33.85;95135.44;4977052;28;20250;-64
2022/09/25 10:01:36;;;;;;;4.30;3.67;;;;;;;17.96;33.97;95132.94;4960411;28;20259;-65
2022/09/25 10:04:07;;;;;;;4.25;3.75;;;;;;;17.89;35.40;95128.56;4975649;28;20215;-64
2022/09/25 10:06:37;;;;;;;3.95;3.47;;;;;;;18.08;33.04;95131.34;4956589;28;20226;-64
2022/09/25 10:09:04;;;;;;;5.60;3.33;;;;;;;18.36;33.27;95119.81;4974074;28;20551;-64
2022/09/25 10:11:31;;;;;;;5.03;3.53;;;;;;;18.65;33.07;95113.41;4962414;28;20238;-64
2022/09/25 10:14:02;;;;;;;4.90;2.97;;;;;;;18.64;32.31;95116.28;4962001;28;20197;-64
2022/09/25 10:16:27;;;;;;;3.53;3.22;;;;;;;18.50;32.80;95116.22;4962078;28;20216;-64
2022/09/25 10:19:14;;;;;;;5.35;3.35;;;;;;;18.35;33.06;95117.38;4964838;28;20207;-64
2022/09/25 10:21:48;;;;;;;6.30;3.80;;;;;;;18.01;34.54;95113.69;4960826;28;20215;-64
2022/09/25 10:24:51;;;;;;;4.85;3.17;;;;;;;17.89;33.80;95110.78;4956833;28;20239;-65
2022/09/25 10:27:28;;;;;;;3.85;3.50;;;;;;;18.12;35.14;95109.66;4954711;28;20261;-67
2022/09/25 10:30:02;;;;;;;3.40;3.10;;;;;;;18.49;32.34;95108.41;4961257;28;20334;-65
2022/09/25 10:32:29;;;;;;;3.30;3.00;;;;;;;18.67;32.60;95097.22;4963659;28;20213;-66
2022/09/25 10:34:55;;;;;;;3.53;3.22;;;;;;;18.91;32.42;95094.03;4966576;28;20211;-66
2022/09/25 10:37:21;;;;;;;3.15;2.95;;;;;;;19.20;32.18;95092.06;4961414;28;20223;-65
2022/09/25 10:40:21;;;;;;;3.38;3.10;;;;;;;19.44;30.99;95092.50;4966166;28;20208;-65
2022/09/25 10:42:47;;;;;;;3.25;2.95;;;;;;;19.43;31.09;95085.50;4959557;28;20763;-65
2022/09/25 10:45:39;;;;;;;4.25;3.35;;;;;;;19.61;31.65;95077.69;4943642;28;20212;-71
2022/09/25 10:51:22;;;;;;;5.00;3.45;;;;;;;19.87;31.60;95079.56;4983001;28;20316;-61
2022/09/25 10:53:50;;;;;;;7.30;3.03;;;;;;;20.15;30.68;95075.78;4963739;28;20218;-63
2022/09/25 10:56:31;;;;;;;5.32;3.25;;;;;;;20.39;30.80;95068.94;4963895;28;20208;-62
2022/09/25 10:59:00;;;;;;;5.95;3.30;;;;;;;20.52;30.83;95076.91;4973869;28;20211;-68
2022/09/25 11:01:34;;;;;;;4.80;3.15;;;;;;;20.66;29.09;95075.84;4977980;28;20204;-69
2022/09/25 11:04:02;;;;;;;3.40;3.10;;;;;;;20.80;29.03;95075.78;4961555;28;20277;-67
2022/09/25 11:06:33;;;;;;;3.53;3.22;;;;;;;20.69;29.77;95067.41;4965548;28;20200;-68
2022/09/25 11:09:26;;;;;;;3.97;3.25;;;;;;;20.74;30.60;95060.59;4974965;28;20269;-67
2022/09/25 11:12:03;;;;;;;3.25;2.92;;;;;;;20.92;29.40;95066.03;4956679;28;20219;-68
2022/09/25 11:14:32;;;;;;;3.58;2.75;;;;;;;21.24;29.29;95060.69;4967272;28;20207;-67
2022/09/25 11:17:00;;;;;;;3.50;3.17;;;;;;;21.41;28.86;95056.50;4956424;28;20212;-68
2022/09/25 11:19:37;;;;;;;4.25;2.67;;;;;;;21.23;28.44;95051.88;4958184;28;20195;-67
2022/09/25 11:22:07;;;;;;;3.40;2.80;;;;;;;21.51;28.01;95051.44;4973340;28;20203;-67
2022/09/25 11:25:10;;;;;;;3.88;3.10;;;;;;;21.65;27.74;95051.34;4976544;28;20215;-67
2022/09/25 11:27:52;;;;;;;5.35;3.22;;;;;;;21.68;28.42;95054.41;4958492;28;20211;-65
2022/09/25 11:30:19;;;;;;;9.65;3.28;;;;;;;22.06;27.84;95042.72;4960337;28;20237;-65
2022/09/25 11:33:00;;;;;;;3.30;3.00;;;;;;;22.14;26.45;95049.63;4973796;28;20203;-66
2022/09/25 11:36:07;;;;;;;5.28;3.13;;;;;;;21.68;27.08;95042.88;4963608;28;20211;-67
2022/09/25 11:41:44;;;;;;;4.25;2.90;;;;;;;21.97;26.97;95042.19;4922542;29;20303;-66
2022/09/25 11:44:18;;;;;;;3.95;2.42;;;;;;;22.40;24.86;95035.13;4925272;29;20205;-66
2022/09/25 11:46:49;;;;;;;3.10;2.75;;;;;;;22.33;25.45;95027.19;4912869;29;20213;-66
2022/09/25 11:49:25;;;;;;;4.35;2.67;;;;;;;22.31;25.48;95020.41;4903440;29;20237;-67
2022/09/25 11:52:08;;;;;;;5.50;3.00;;;;;;;22.59;26.68;95019.88;4922472;29;20296;-66
2022/09/25 11:54:47;;;;;;;3.03;2.83;;;;;;;22.25;24.50;95016.78;4907506;29;20198;-66
2022/09/25 11:57:15;;;;;;;3.15;2.88;;;;;;;22.48;25.74;95017.94;4922326;29;20307;-66
2022/09/25 11:59:58;;;;;;;3.05;2.75;;;;;;;22.29;25.40;95003.75;4921701;29;20228;-65
2022/09/25 12:02:54;;;;;;;2.80;2.60;;;;;;;23.00;25.29;95012.91;4907693;29;20253;-66
2022/09/25 12:05:28;;;;;;;3.58;2.40;;;;;;;23.60;23.67;95004.72;4921730;29;20206;-66
2022/09/25 12:08:34;;;;;;;3.33;3.03;;;;;;;23.78;23.13;95001.13;4922345;29;20229;-65
2022/09/25 12:11:20;;;;;;;2.65;2.45;;;;;;;24.16;23.78;94991.72;4909015;29;20217;-67
2022/09/25 12:14:01;;;;;;;3.47;2.55;;;;;;;24.45;22.51;94998.00;4929257;29;20244;-68
2022/09/25 12:16:58;;;;;;;2.75;2.55;;;;;;;24.53;21.85;94986.84;4981017;28;20207;-65
2022/09/25 12:19:23;;;;;;;3.72;2.40;;;;;;;24.37;21.88;94990.28;4978257;28;20207;-66
2022/09/25 12:22:00;;;;;;;3.88;2.95;;;;;;;24.01;22.23;94988.75;4960679;28;20273;-65
2022/09/25 12:24:41;;;;;;;2.38;2.17;;;;;;;24.15;22.63;94985.53;4966245;28;20216;-66
2022/09/25 12:27:09;;;;;;;3.17;2.35;;;;;;;24.61;21.66;94980.28;4976178;28;20211;-66
2022/09/25 12:30:19;;;;;;;2.50;2.30;;;;;;;25.00;20.25;94975.09;4961895;28;20258;-66
2022/09/25 12:33:39;;;;;;;4.00;2.65;;;;;;;24.97;20.68;94968.31;4904556;29;20441;-65
2022/09/25 12:36:07;;;;;;;2.75;2.55;;;;;;;25.28;19.82;94972.34;4842782;29;20293;-66
2022/09/25 12:39:00;;;;;;;2.90;2.53;;;;;;;27.72;17.23;94971.94;4841991;29;20290;-65
2022/09/25 12:41:53;;;;;;;4.55;2.78;;;;;;;35.68;10.51;94977.28;4837649;29;20245;-66
2022/09/25 12:44:51;;;;;;;2.92;2.72;;;;;;;41.83;5.96;94968.03;4839180;29;20216;-66
2022/09/25 12:47:31;;;;;;;3.40;3.20;;;;;;;43.87;4.82;94965.72;4834213;29;20266;-67
2022/09/25 12:50:12;;;;;;;3.42;3.03;;;;;;;45.16;4.39;94954.06;4838048;29;20267;-67
2022/09/25 12:52:54;;;;;;;2.85;2.65;;;;;;;45.44;4.14;94951.63;4834420;29;20795;-66
2022/09/25 12:55:25;;;;;;;3.38;2.42;;;;;;;44.32;4.53;94951.13;4819234;29;20313;-67
2022/09/25 12:58:16;;;;;;;2.53;2.40;;;;;;;44.97;3.52;94953.00;4833742;29;20226;-67
2022/09/25 13:00:45;;;;;;;2.78;2.58;;;;;;;47.34;2.40;94955.38;4832789;29;20273;-67
2022/09/25 13:03:17;;;;;;;2.92;2.72;;;;;;;47.84;2.67;94944.50;4856429;29;20214;-68
2022/09/25 13:06:09;;;;;;;5.43;5.05;;;;;;;49.02;1.92;94948.16;4893414;29;20222;-67
2022/09/25 13:09:09;;;;;;;2.83;2.63;;;;;;;49.38;2.04;94936.13;4892459;29;20218;-67
2022/09/25 13:11:49;;;;;;;3.33;2.95;;;;;;;50.36;1.94;94924.03;4895751;29;20210;-68
2022/09/25 13:14:41;;;;;;;3.38;2.67;;;;;;;49.48;2.03;94912.13;4903704;29;20286;-68
2022/09/25 13:17:11;;;;;;;2.80;2.60;;;;;;;49.94;1.68;94911.09;4878219;29;20226;-69
2022/09/25 13:19:37;;;;;;;3.20;2.90;;;;;;;50.94;1.64;94910.34;4885907;29;20219;-68
2022/09/25 13:22:11;;;;;;;3.20;3.00;;;;;;;50.33;1.19;94908.09;4887390;29;20265;-66
2022/09/25 13:24:42;;;;;;;4.00;2.78;;;;;;;51.03;1.27;94910.66;4899252;29;20278;-68
2022/09/25 13:27:14;;;;;;;3.20;3.00;;;;;;;50.62;1.07;94905.84;4902102;29;20214;-68
2022/09/25 13:29:40;;;;;;;3.20;2.92;;;;;;;50.86;1.09;94906.81;4902231;29;20225;-69
2022/09/25 13:32:16;;;;;;;3.63;3.42;;;;;;;51.03;1.28;94905.06;4891558;29;20213;-69
2022/09/25 13:34:42;;;;;;;3.60;3.40;;;;;;;52.28;0.59;94907.47;4885344;29;20248;-70
2022/09/25 13:37:13;;;;;;;4.82;3.38;;;;;;;51.06;1.08;94900.63;4884494;29;20305;-69
2022/09/25 13:42:38;;;;;;;3.22;3.03;;;;;;;50.88;1.29;94896.00;4918151;29;20228;-69
2022/09/25 13:45:28;;;;;;;4.10;3.75;;;;;;;52.03;0.62;94889.81;4906024;29;20232;-68
2022/09/25 13:47:59;;;;;;;3.13;3.03;;;;;;;53.11;0.57;94885.19;4923523;28;20220;-69
2022/09/25 13:50:42;;;;;;;3.70;3.40;;;;;;;50.20;1.87;94882.59;4954378;28;20555;-69
2022/09/25 13:53:16;;;;;;;3.10;2.90;;;;;;;49.32;2.20;94874.28;4954689;28;20231;-68
2022/09/25 13:56:02;;;;;;;2.55;2.35;;;;;;;41.78;5.75;94859.81;4961574;28;20317;-68
2022/09/25 13:58:32;;;;;;;3.25;2.38;;;;;;;39.97;6.50;94860.38;4958084;28;20231;-68
2022/09/25 14:00:59;;;;;;;3.00;2.72;;;;;;;44.50;4.43;94868.28;4956901;28;20350;-68
2022/09/25 14:03:31;;;;;;;4.15;2.85;;;;;;;48.05;2.36;94869.28;4956568;28;20212;-67
2022/09/25 14:05:58;;;;;;;4.70;2.42;;;;;;;41.73;5.32;94865.59;4956615;28;20209;-66
2022/09/25 14:08:26;;;;;;;2.10;1.95;;;;;;;37.81;8.03;94847.94;4958217;28;20334;-69
2022/09/25 14:10:55;;;;;;;4.25;3.92;;;;;;;39.48;7.11;94852.81;4953966;28;20209;-67
2022/09/25 14:13:24;;;;;;;2.95;2.70;;;;;;;44.70;4.50;94863.41;4957818;28;20239;-68
2022/09/25 14:15:55;;;;;;;2.22;2.03;;;;;;;43.91;5.14;94858.56;4953347;28;20211;-68
2022/09/25 14:18:38;;;;;;;2.35;2.20;;;;;;;42.89;5.30;94852.22;4973604;28;20229;-68
2022/09/25 14:21:08;;;;;;;2.53;2.33;;;;;;;42.42;5.54;94853.13;4979233;28;20286;-68
2022/09/25 14:23:53;;;;;;;2.60;2.40;;;;;;;43.12;5.43;94845.97;4974979;28;20211;-68
2022/09/25 14:26:21;;;;;;;3.30;2.42;;;;;;;42.24;5.22;94846.38;4970894;28;20269;-68
2022/09/25 14:28:48;;;;;;;2.28;2.17;;;;;;;47.72;2.95;94851.69;4954744;28;20211;-68
2022/09/25 14:31:30;;;;;;;2.75;2.53;;;;;;;47.72;2.62;94857.28;4955301;28;20413;-68
2022/09/25 14:34:39;;;;;;;2.58;2.38;;;;;;;47.56;3.65;94856.03;4957308;28;20298;-68
2022/09/25 14:37:42;;;;;;;2.85;2.58;;;;;;;47.52;3.60;94853.25;4856584;29;20225;-67
2022/09/25 14:40:38;;;;;;;3.53;3.17;;;;;;;45.85;4.02;94848.19;4880633;29;20211;-66
2022/09/25 14:43:32;;;;;;;2.28;2.13;;;;;;;41.99;5.88;94849.31;4882778;29;20224;-66
2022/09/25 14:46:07;;;;;;;2.50;1.85;;;;;;;43.04;5.07;94855.28;4866137;29;20228;-67
2022/09/25 14:48:53;;;;;;;2.78;2.03;;;;;;;43.14;5.22;94846.41;4881580;29;20215;-66
2022/09/25 14:51:26;;;;;;;2.40;2.20;;;;;;;42.54;5.60;94840.38;4881746;29;20290;-67
2022/09/25 14:53:57;;;;;;;2.97;2.20;;;;;;;41.93;5.71;94848.00;4874195;29;20223;-67
2022/09/25 14:56:24;;;;;;;2.97;2.25;;;;;;;40.39;6.88;94840.06;4883409;29;20209;-68
2022/09/25 14:58:56;;;;;;;2.40;2.20;;;;;;;38.57;8.52;94838.84;4881759;29;20267;-67
2022/09/25 15:01:32;;;;;;;2.60;2.40;;;;;;;37.09;9.26;94838.59;4866558;29;20226;-66
2022/09/25 15:04:04;;;;;;;3.78;2.38;;;;;;;36.90;9.28;94840.84;4869437;29;20222;-66
2022/09/25 15:06:33;;;;;;;3.78;2.30;;;;;;;37.25;9.20;94845.16;4872452;29;20230;-67
2022/09/25 15:09:01;;;;;;;2.20;2.00;;;;;;;37.22;9.35;94848.56;4866304;29;20296;-65
2022/09/25 15:11:38;;;;;;;2.78;2.45;;;;;;;36.27;9.96;94845.75;4870969;29;20219;-67
2022/09/25 15:14:30;;;;;;;2.70;2.10;;;;;;;34.25;11.19;94847.47;4921989;28;20217;-67
2022/09/25 15:19:44;;;;;;;2.95;2.20;;;;;;;31.07;14.29;94848.50;4956412;28;20223;-68
2022/09/25 15:22:18;;;;;;;3.03;2.28;;;;;;;29.63;14.46;94845.72;4959782;28;20703;-68
2022/09/25 15:24:49;;;;;;;5.53;2.85;;;;;;;28.80;16.04;94848.81;4957345;28;20272;-68
2022/09/25 15:27:16;;;;;;;5.70;2.50;;;;;;;28.36;16.16;94841.97;4955330;28;20267;-67
2022/09/25 15:29:44;;;;;;;2.70;1.70;;;;;;;28.31;16.24;94838.44;4967470;28;20204;-66
2022/09/25 15:32:17;;;;;;;3.38;2.75;;;;;;;28.06;16.37;94837.28;4960849;28;20211;-67
2022/09/25 15:34:43;;;;;;;4.53;2.25;;;;;;;27.79;16.92;94836.63;4954471;28;20208;-66
2022/09/25 15:37:28;;;;;;;2.58;1.95;;;;;;;27.51;17.75;94827.84;4963500;28;20215;-66
2022/09/25 15:39:54;;;;;;;4.60;2.40;;;;;;;27.45;17.74;94837.00;4959055;28;20212;-66
2022/09/25 15:42:20;;;;;;;4.55;2.40;;;;;;;26.97;17.43;94838.81;4963757;28;20726;-66
2022/09/25 15:44:47;;;;;;;3.35;2.63;;;;;;;26.82;18.02;94837.63;4964438;28;20647;-67
2022/09/25 15:47:34;;;;;;;4.93;2.65;;;;;;;26.61;18.37;94841.22;4962658;28;20306;-67
2022/09/25 15:50:01;;;;;;;4.53;2.90;;;;;;;26.30;18.18;94835.53;4961451;28;20206;-66
2022/09/25 15:52:33;;;;;;;2.85;2.15;;;;;;;26.21;18.53;94838.94;4974969;28;20668;-69
2022/09/25 15:55:13;;;;;;;8.98;2.35;;;;;;;26.20;18.55;94843.53;4973744;28;20225;-68
2022/09/25 15:57:39;;;;;;;4.47;2.20;;;;;;;25.84;19.91;94835.03;4974839;28;20204;-67
2022/09/25 16:06:02;;;;;;;2.92;2.38;;;;;;;25.00;20.86;94832.50;4980435;28;20252;-68
2022/09/25 16:08:33;;;;;;;2.42;2.22;;;;;;;24.89;21.12;94833.44;4962135;28;20207;-68
2022/09/25 16:11:05;;;;;;;5.85;2.45;;;;;;;24.54;21.78;94827.22;4973497;28;20204;-69
2022/09/25 16:13:31;;;;;;;3.05;2.75;;;;;;;24.52;21.88;94828.53;4975472;28;20386;-68
2022/09/25 16:15:57;;;;;;;2.95;2.58;;;;;;;24.35;21.51;94823.09;4975382;28;20224;-68
2022/09/25 16:18:43;;;;;;;3.70;2.63;;;;;;;24.09;22.58;94824.53;4962169;28;20224;-68
2022/09/25 16:21:17;;;;;;;3.03;2.67;;;;;;;23.96;23.11;94831.00;4956251;28;20275;-69
2022/09/25 16:23:49;;;;;;;4.30;2.60;;;;;;;23.70;22.69;94833.13;4969457;28;20213;-69
2022/09/25 16:26:20;;;;;;;3.75;2.38;;;;;;;23.71;22.37;94834.81;4975915;28;20208;-67
2022/09/25 16:29:12;;;;;;;3.13;2.58;;;;;;;23.30;23.19;94827.75;4972905;28;20200;-66
2022/09/25 16:31:40;;;;;;;2.72;2.50;;;;;;;23.08;23.23;94831.03;4905675;29;20229;-66
2022/09/25 16:34:16;;;;;;;3.53;2.70;;;;;;;23.04;23.26;94837.09;4905502;29;20277;-66
2022/09/25 16:36:43;;;;;;;4.13;2.50;;;;;;;23.08;23.47;94836.41;4889089;29;20233;-67
2022/09/25 16:39:09;;;;;;;4.00;1.98;;;;;;;22.63;23.94;94833.44;4907749;29;20301;-68
2022/09/25 16:41:42;;;;;;;5.05;2.15;;;;;;;22.76;23.02;94843.13;4890176;29;20311;-68
2022/09/25 16:44:16;;;;;;;3.65;1.80;;;;;;;22.53;24.61;94843.91;4905127;29;20233;-65
2022/09/25 16:47:04;;;;;;;3.70;2.47;;;;;;;22.40;25.24;94839.56;4903446;29;20239;-65
2022/09/25 16:49:31;;;;;;;5.45;2.55;;;;;;;22.33;25.97;94842.34;4903985;29;20270;-67
2022/09/25 16:51:57;;;;;;;5.13;2.15;;;;;;;22.29;26.26;94835.81;4906159;29;20214;-68
2022/09/25 16:54:29;;;;;;;2.58;2.38;;;;;;;22.12;26.52;94838.28;4893244;29;20232;-67
2022/09/25 16:56:57;;;;;;;5.07;2.60;;;;;;;21.97;26.79;94841.41;4898868;29;20446;-67
2022/09/25 16:59:25;;;;;;;4.28;2.63;;;;;;;21.97;27.14;94846.75;4908984;29;20218;-67
2022/09/25 17:01:54;;;;;;;2.88;2.17;;;;;;;22.11;27.49;94857.28;4909304;29;20294;-68
2022/09/25 17:04:22;;;;;;;3.80;2.58;;;;;;;21.84;27.41;94857.63;4908002;29;20285;-67
2022/09/25 17:06:48;;;;;;;7.65;4.70;;;;;;;21.62;27.22;94853.78;4906348;29;20218;-68
2022/09/25 17:09:15;;;;;;;5.25;3.50;;;;;;;21.62;26.99;94848.44;4958711;28;20226;-67
2022/09/25 17:11:43;;;;;;;12.07;9.48;;;;;;;21.50;27.50;94851.84;4963046;28;20275;-66
2022/09/25 17:14:23;;;;;;;4.43;3.40;;;;;;;21.36;27.82;94855.69;4978863;28;20308;-67
2022/09/25 17:16:52;;;;;;;3.72;2.83;;;;;;;21.38;27.77;94858.97;4975732;28;20210;-66
2022/09/25 17:19:19;;;;;;;8.25;3.50;;;;;;;21.36;27.74;94864.53;4961675;28;20244;-66
2022/09/25 17:21:50;;;;;;;5.38;3.28;;;;;;;21.33;27.68;94869.50;4979305;28;20563;-67
2022/09/25 17:24:17;;;;;;;3.72;3.30;;;;;;;21.30;27.38;94867.25;4961701;28;20219;-66
2022/09/25 17:26:43;;;;;;;4.70;3.28;;;;;;;21.49;27.08;94860.94;4975113;28;20215;-65
2022/09/25 17:29:09;;;;;;;8.75;4.70;;;;;;;21.27;28.37;94862.38;4977335;28;20230;-66
2022/09/25 17:31:36;;;;;;;9.10;4.55;;;;;;;20.96;29.34;94860.63;4969184;28;20239;-66
2022/09/25 17:34:06;;;;;;;7.55;6.22;;;;;;;20.82;29.08;94859.91;4979550;28;20238;-67
2022/09/25 17:36:32;;;;;;;7.72;5.70;;;;;;;20.68;29.10;94868.03;4960887;28;20215;-66
2022/09/25 17:38:58;;;;;;;7.95;5.68;;;;;;;20.64;29.31;94871.38;4973997;28;20208;-67
2022/09/25 17:41:31;;;;;;;9.20;4.82;;;;;;;20.60;29.45;94872.84;4975392;28;20242;-66
2022/09/25 17:43:57;;;;;;;8.13;5.53;;;;;;;20.43;29.90;94870.69;4977247;28;20207;-67
2022/09/25 17:46:23;;;;;;;6.53;4.68;;;;;;;20.19;30.79;94872.28;4969519;28;20230;-66
2022/09/25 17:48:49;;;;;;;6.10;4.50;;;;;;;20.08;31.69;94872.16;4975848;28;20214;-65
2022/09/25 17:51:17;;;;;;;9.63;4.93;;;;;;;20.03;30.89;94878.13;4979536;28;20208;-66
2022/09/25 17:53:44;;;;;;;7.90;5.00;;;;;;;19.61;31.80;94886.47;4975259;28;20222;-66
2022/09/25 17:56:11;;;;;;;5.82;4.00;;;;;;;19.54;32.21;94890.19;4962749;28;20304;-67
2022/09/25 17:58:37;;;;;;;8.35;4.63;;;;;;;19.44;32.44;94900.50;4964513;28;20219;-67
2022/09/25 18:01:09;;;;;;;9.23;5.30;;;;;;;19.41;32.93;94906.25;4962675;28;20299;-67
2022/09/25 18:03:35;;;;;;;9.05;5.75;;;;;;;19.35;32.76;94908.72;4961310;28;20203;-67
2022/09/25 18:06:00;;;;;;;7.88;5.35;;;;;;;19.43;32.84;94914.84;4979917;28;20207;-67
2022/09/25 18:08:26;;;;;;;12.90;5.38;;;;;;;19.54;32.34;94917.69;4966088;28;20350;-65
2022/09/25 18:10:54;;;;;;;9.35;5.88;;;;;;;19.60;32.46;94921.38;4962113;28;20226;-66
2022/09/25 18:13:20;;;;;;;9.40;7.15;;;;;;;19.43;33.03;94920.19;4968003;28;20341;-65
2022/09/25 18:15:57;;;;;;;9.63;6.18;;;;;;;19.46;33.54;94930.41;4961767;28;20237;-65
2022/09/25 18:18:23;;;;;;;8.20;5.72;;;;;;;19.36;33.39;94921.03;4963652;28;20211;-65
2022/09/25 18:23:34;;;;;;;10.60;5.70;;;;;;;18.94;34.44;94923.13;4977938;28;20519;-65
2022/09/25 18:26:02;;;;;;;7.20;5.32;;;;;;;18.91;35.00;94934.19;4970310;28;20222;-66
2022/09/25 18:28:28;;;;;;;9.38;6.53;;;;;;;18.87;34.35;94930.31;4967118;28;20195;-67
2022/09/25 18:30:56;;;;;;;9.35;5.95;;;;;;;19.12;33.96;94919.00;4976185;28;20246;-67
2022/09/25 18:33:23;;;;;;;7.60;5.57;;;;;;;18.99;34.36;94919.84;4970512;28;20310;-67
2022/09/25 18:35:52;;;;;;;8.93;5.60;;;;;;;18.80;35.02;94932.16;4967886;28;20254;-67
2022/09/25 18:38:17;;;;;;;11.38;6.10;;;;;;;18.51;35.75;94926.13;4961701;28;20211;-66
2022/09/25 18:40:43;;;;;;;7.68;5.90;;;;;;;18.44;36.38;94921.81;4967371;28;20228;-66
2022/09/25 18:43:10;;;;;;;9.90;5.88;;;;;;;18.63;35.64;94923.72;4963813;28;20207;-67
2022/09/25 18:45:36;;;;;;;9.68;5.72;;;;;;;18.43;36.32;94918.34;4962377;28;20254;-65
2022/09/25 18:48:03;;;;;;;12.55;6.38;;;;;;;18.45;36.06;94913.66;4975242;28;20212;-65
2022/09/25 18:50:28;;;;;;;7.72;5.32;;;;;;;18.51;35.60;94917.34;4965520;28;20235;-64
2022/09/25 18:52:54;;;;;;;7.78;5.40;;;;;;;18.23;36.00;94922.81;4962584;28;20216;-65
2022/09/25 18:55:19;;;;;;;7.90;5.53;;;;;;;18.25;36.05;94934.88;4965961;28;20199;-66
2022/09/25 18:57:45;;;;;;;5.55;5.03;;;;;;;18.06;36.53;94936.47;4972079;28;20237;-65
2022/09/25 19:00:11;;;;;;;8.30;5.80;;;;;;;18.09;36.63;94935.25;4979549;28;20222;-65
2022/09/25 19:02:37;;;;;;;9.35;6.55;;;;;;;18.37;36.14;94934.31;4973783;28;20215;-65
2022/09/25 19:05:04;;;;;;;11.27;5.82;;;;;;;17.81;37.74;94924.75;4963175;28;20285;-65
2022/09/25 19:07:29;;;;;;;11.77;6.10;;;;;;;17.83;37.57;94928.84;4965702;28;20208;-67
2022/09/25 19:09:57;;;;;;;11.27;5.85;;;;;;;17.89;37.93;94932.53;4963465;28;20584;-67
2022/09/25 19:12:22;;;;;;;14.45;5.78;;;;;;;17.85;38.28;94939.25;4964975;28;20239;-67
2022/09/25 19:14:48;;;;;;;11.02;6.43;;;;;;;17.99;37.63;94940.97;4962574;28;20203;-69
2022/09/25 19:17:15;;;;;;;11.52;6.00;;;;;;;18.02;37.07;94939.75;4969402;28;20212;-67
2022/09/25 19:19:41;;;;;;;9.45;6.00;;;;;;;17.59;38.90;94940.78;4977302;28;20226;-66
2022/09/25 19:22:18;;;;;;;10.55;6.70;;;;;;;17.63;38.91;94927.91;4976501;28;20294;-68
2022/09/25 19:24:49;;;;;;;10.45;7.30;;;;;;;17.52;39.32;94929.28;4967481;28;20273;-66
2022/09/25 19:27:16;;;;;;;10.80;6.75;;;;;;;17.68;39.03;94937.94;4964517;28;20203;-66
2022/09/25 19:29:43;;;;;;;11.55;6.30;;;;;;;17.48;39.51;94928.03;4965892;28;20218;-65
2022/09/25 19:32:10;;;;;;;10.70;6.68;;;;;;;17.44;40.08;94925.97;4963867;28;20211;-67
2022/09/25 19:34:37;;;;;;;14.32;6.65;;;;;;;17.26;40.48;94929.94;4980043;28;20216;-66
2022/09/25 19:37:03;;;;;;;13.98;5.95;;;;;;;17.24;40.66;94936.47;4964996;28;20243;-65
2022/09/25 19:39:28;;;;;;;7.70;5.93;;;;;;;16.96;41.63;94939.97;4961250;28;20222;-66
2022/09/25 19:41:54;;;;;;;10.65;6.60;;;;;;;17.15;41.16;94928.66;4965305;28;20231;-65
2022/09/25 19:44:22;;;;;;;10.20;6.78;;;;;;;17.03;41.13;94924.91;4963667;28;20275;-66
2022/09/25 19:46:48;;;;;;;11.32;6.20;;;;;;;16.95;41.44;94941.00;4961680;28;20216;-66
2022/09/25 19:49:15;;;;;;;9.65;5.47;;;;;;;16.88;41.37;94932.13;4967654;28;20210;-66
2022/09/25 19:51:42;;;;;;;11.13;6.68;;;;;;;16.81;41.47;94920.63;4968139;28;20204;-66
2022/09/25 19:54:10;;;;;;;8.05;5.57;;;;;;;16.85;41.71;94937.84;4967050;28;20211;-65
2022/09/25 19:56:39;;;;;;;8.07;5.63;;;;;;;16.92;40.45;94944.00;4962528;28;20200;-65
2022/09/25 19:59:05;;;;;;;8.75;6.15;;;;;;;16.89;40.32;94936.44;4981942;28;20207;-65
2022/09/25 20:01:31;;;;;;;9.82;6.05;;;;;;;16.83;40.39;94939.84;4956853;28;20301;-66
2022/09/25 20:03:57;;;;;;;10.90;5.18;;;;;;;16.85;40.35;94948.47;4960758;28;20270;-65
2022/09/25 20:06:24;;;;;;;8.98;5.88;;;;;;;16.67;40.68;94941.72;4961359;28;20219;-65
2022/09/25 20:08:59;;;;;;;8.05;6.25;;;;;;;16.89;39.89;94928.47;4981822;28;20211;-65
2022/09/25 20:11:26;;;;;;;6.07;4.70;;;;;;;16.66;40.75;94936.63;4986924;28;20195;-65
2022/09/25 20:13:52;;;;;;;9.30;5.57;;;;;;;16.72;40.82;94941.16;4971443;28;20214;-66
2022/09/25 20:16:23;;;;;;;7.63;5.40;;;;;;;16.72;40.50;94939.31;4964806;28;20211;-66
2022/09/25 20:18:52;;;;;;;10.13;5.82;;;;;;;16.56;40.79;94936.94;4978352;28;20336;-69
2022/09/25 20:21:20;;;;;;;6.93;4.97;;;;;;;16.61;40.22;94942.50;4972722;28;20316;-67
2022/09/25 20:23:57;;;;;;;7.88;5.00;;;;;;;16.61;40.51;94945.16;4966636;28;20204;-66
2022/09/25 20:26:23;;;;;;;8.95;4.78;;;;;;;16.58;40.44;94942.88;4985370;28;20207;-65
2022/09/25 20:28:57;;;;;;;8.73;4.72;;;;;;;16.57;39.76;94932.44;4967002;28;20527;-67
2022/09/25 20:31:24;;;;;;;6.72;4.88;;;;;;;16.54;40.27;94942.47;4968614;28;20257;-66
2022/09/25 20:33:50;;;;;;;5.13;3.88;;;;;;;16.52;39.90;94933.03;4965652;28;20325;-66
2022/09/25 20:36:16;;;;;;;4.60;4.10;;;;;;;16.47;39.69;94930.13;4970708;28;20212;-65
2022/09/25 20:38:41;;;;;;;7.00;4.05;;;;;;;16.55;39.93;94932.66;4974912;28;20217;-66
2022/09/25 20:41:10;;;;;;;4.57;3.78;;;;;;;16.51;39.52;94939.34;4967475;28;20235;-65
2022/09/25 20:43:35;;;;;;;5.90;3.60;;;;;;;16.44;39.60;94931.34;4966875;28;20231;-66
2022/09/25 20:46:06;;;;;;;4.75;3.53;;;;;;;16.31;39.60;94932.03;4969736;28;20216;-65
2022/09/25 20:48:37;;;;;;;5.63;3.88;;;;;;;16.32;40.05;94928.34;4978618;28;20204;-65
2022/09/25 20:51:07;;;;;;;6.13;3.53;;;;;;;16.16;40.41;94920.63;4948561;28;20267;-65
2022/09/25 20:53:33;;;;;;;6.68;4.10;;;;;;;16.27;39.76;94921.97;4971050;28;20242;-65
2022/09/25 20:56:18;;;;;;;4.28;3.58;;;;;;;16.03;40.39;94931.09;4966223;28;20203;-66
2022/09/25 20:58:44;;;;;;;5.93;3.53;;;;;;;15.99;40.55;94932.50;4960140;28;20208;-66
2022/09/25 21:01:16;;;;;;;6.13;3.78;;;;;;;16.13;40.48;94923.66;4970859;28;20211;-65
2022/09/25 21:03:43;;;;;;;4.13;3.60;;;;;;;15.97;41.34;94931.88;4966407;28;20203;-65
2022/09/25 21:06:13;;;;;;;6.82;3.60;;;;;;;15.96;41.42;94936.34;4977198;28;20211;-66
2022/09/25 21:08:38;;;;;;;5.90;4.20;;;;;;;16.18;40.87;94923.94;4978221;28;20212;-66
2022/09/25 21:11:06;;;;;;;5.85;4.40;;;;;;;16.04;40.88;94924.81;4968072;28;20213;-67
2022/09/25 21:13:33;;;;;;;4.82;4.32;;;;;;;15.66;42.40;94917.81;4972144;28;20215;-66
2022/09/25 21:16:03;;;;;;;5.20;4.22;;;;;;;15.79;42.87;94914.50;4961093;28;20211;-66
2022/09/25 21:18:30;;;;;;;4.03;3.65;;;;;;;15.65;42.87;94916.16;4972393;28;20238;-66
2022/09/25 21:21:00;;;;;;;9.73;4.80;;;;;;;15.83;42.52;94918.47;4976308;28;20224;-65
2022/09/25 21:23:26;;;;;;;8.60;4.10;;;;;;;15.67;42.20;94913.34;4983949;28;20282;-66
2022/09/25 21:25:51;;;;;;;7.05;4.10;;;;;;;15.62;42.92;94919.19;4980604;28;20291;-66
2022/09/25 21:28:17;;;;;;;7.65;4.13;;;;;;;15.50;43.19;94912.69;4966706;28;20204;-67
2022/09/25 21:30:42;;;;;;;6.95;4.60;;;;;;;15.63;43.21;94915.53;4964828;28;20204;-66